Time;durP1;ratioP1;P1;durP2;ratioP2;P2;SDS_P1;SDS_P2;PMS_P1;PMS_P2;Temp;Humidity;BMP_temperature;BMP_pressure;BME280_temperature;BME280_humidity;BME280_pressure;Samples;Min_cycle;Max_cycle;Signal;HPM_P1;HPM_P2
2022/08/11 00:01:24;;;;;;;6.80;3.80;;;19.40;99.90;;;;;;5064990;28;20212;-79
2022/08/11 00:04:13;;;;;;;8.02;4.30;;;19.30;99.90;;;;;;5051154;28;20597;-80
2022/08/11 00:07:05;;;;;;;5.85;4.18;;;19.20;99.90;;;;;;5064785;28;20307;-79
2022/08/11 00:09:56;;;;;;;7.68;4.25;;;19.20;99.90;;;;;;5064485;28;20229;-80
2022/08/11 00:12:51;;;;;;;10.05;4.32;;;19.20;99.90;;;;;;5060027;28;20787;-79
2022/08/11 00:15:44;;;;;;;6.38;3.67;;;19.30;99.90;;;;;;5066278;28;20241;-80
2022/08/11 00:18:40;;;;;;;6.68;3.75;;;19.30;99.90;;;;;;5048835;28;20857;-80
2022/08/11 00:21:30;;;;;;;7.03;3.72;;;19.30;99.90;;;;;;5048444;28;20653;-80
2022/08/11 00:24:41;;;;;;;6.25;3.53;;;19.20;99.90;;;;;;5066998;28;20273;-80
2022/08/11 00:27:43;;;;;;;6.35;3.47;;;19.20;99.90;;;;;;5051886;28;20742;-81
2022/08/11 00:30:39;;;;;;;8.57;3.63;;;19.20;99.90;;;;;;5063061;28;20303;-80
2022/08/11 00:33:34;;;;;;;5.65;3.47;;;19.20;99.90;;;;;;5065638;28;21107;-79
2022/08/11 00:36:45;;;;;;;5.55;2.90;;;18.90;99.90;;;;;;5046770;28;20230;-79
2022/08/11 00:39:42;;;;;;;4.72;3.17;;;19.10;99.90;;;;;;5044867;28;20799;-80
2022/08/11 00:42:45;;;;;;;9.65;3.35;;;19.10;99.90;;;;;;5060751;28;20219;-80
2022/08/11 00:45:42;;;;;;;4.38;3.20;;;19.10;99.90;;;;;;5043805;28;20747;-80
2022/08/11 00:48:45;;;;;;;5.82;3.22;;;19.00;99.90;;;;;;5059437;28;20295;-80
2022/08/11 00:51:52;;;;;;;5.13;3.13;;;19.00;99.90;;;;;;5046310;28;20232;-81
2022/08/11 00:55:33;;;;;;;7.47;3.47;;;19.00;99.90;;;;;;5057170;28;20585;-80
2022/08/11 00:58:58;;;;;;;10.43;3.55;;;18.90;99.90;;;;;;5059110;28;20245;-80
2022/08/11 01:02:06;;;;;;;6.40;3.40;;;18.80;99.90;;;;;;5039347;28;20859;-79
2022/08/11 01:05:34;;;;;;;4.63;3.00;;;18.70;99.90;;;;;;5046335;28;20228;-79
2022/08/11 01:09:00;;;;;;;7.18;3.40;;;18.70;99.90;;;;;;5058970;28;20216;-79
2022/08/11 01:12:28;;;;;;;5.68;3.55;;;18.70;99.90;;;;;;5044227;28;20224;-80
2022/08/11 01:15:49;;;;;;;5.00;2.97;;;18.70;99.90;;;;;;5048267;28;20216;-77
2022/08/11 01:19:28;;;;;;;5.65;2.78;;;18.60;99.90;;;;;;5063000;28;20720;-78
2022/08/11 01:23:16;;;;;;;5.25;2.88;;;18.60;99.90;;;;;;5048024;28;20370;-79
2022/08/11 01:26:56;;;;;;;6.10;3.15;;;18.70;99.90;;;;;;5049182;28;20769;-79
2022/08/11 01:30:18;;;;;;;9.60;3.13;;;18.60;99.90;;;;;;5059301;28;20279;-79
2022/08/11 01:33:53;;;;;;;7.88;3.47;;;18.50;99.90;;;;;;5068202;28;20232;-78
2022/08/11 01:37:13;;;;;;;7.93;3.03;;;18.40;99.90;;;;;;5073012;28;20221;-81
2022/08/11 01:40:31;;;;;;;4.65;3.05;;;18.40;99.90;;;;;;5059937;28;20307;-80
2022/08/11 01:50:56;;;;;;;8.45;3.20;;;18.40;99.90;;;;;;5049543;28;20216;-80
2022/08/11 01:53:53;;;;;;;5.40;3.15;;;18.40;99.90;;;;;;5060487;28;20701;-79
2022/08/11 01:56:55;;;;;;;6.75;3.00;;;18.40;99.90;;;;;;5043162;28;20311;-80
2022/08/11 01:59:49;;;;;;;5.88;3.22;;;18.40;99.90;;;;;;5044767;28;20749;-80
2022/08/11 02:02:52;;;;;;;4.60;3.22;;;18.40;99.90;;;;;;5062242;28;20224;-80
2022/08/11 02:05:55;;;;;;;6.85;3.28;;;18.20;99.90;;;;;;5061466;28;20222;-79
2022/08/11 02:08:51;;;;;;;8.48;3.53;;;18.20;99.90;;;;;;5043282;28;20217;-80
2022/08/11 02:11:42;;;;;;;6.82;3.10;;;18.20;99.90;;;;;;5049235;28;20223;-81
2022/08/11 02:14:39;;;;;;;8.32;3.30;;;18.10;99.90;;;;;;5049728;28;20973;-79
2022/08/11 02:17:59;;;;;;;6.55;3.28;;;18.20;99.90;;;;;;5061840;28;20232;-80
2022/08/11 02:24:16;;;;;;;7.38;3.25;;;18.30;99.90;;;;;;5010957;28;20275;-78
2022/08/11 02:27:09;;;;;;;6.38;3.15;;;18.10;99.90;;;;;;5059293;28;20223;-77
2022/08/11 02:30:06;;;;;;;8.10;3.20;;;18.20;99.90;;;;;;5049960;28;20216;-79
2022/08/11 02:33:22;;;;;;;7.07;3.22;;;18.20;99.90;;;;;;5060405;28;20232;-80
2022/08/11 02:36:18;;;;;;;4.72;3.08;;;18.20;99.90;;;;;;5057704;28;20262;-80
2022/08/11 02:39:11;;;;;;;3.92;2.92;;;18.10;99.90;;;;;;5061617;28;20754;-80
2022/08/11 02:42:25;;;;;;;5.10;3.60;;;18.20;99.90;;;;;;5055622;28;20219;-79
2022/08/11 02:45:39;;;;;;;4.00;3.10;;;18.00;99.90;;;;;;5055771;28;20231;-78
2022/08/11 02:52:03;;;;;;;6.97;3.67;;;18.00;99.90;;;;;;5056939;28;20251;-80
2022/08/11 02:55:02;;;;;;;9.35;3.20;;;18.00;99.90;;;;;;5056850;28;20216;-79
2022/08/11 02:57:56;;;;;;;5.93;3.53;;;17.80;99.90;;;;;;5056161;28;20227;-78
2022/08/11 03:00:57;;;;;;;6.38;3.50;;;17.70;99.90;;;;;;5055996;28;20224;-79
2022/08/11 03:03:53;;;;;;;9.15;3.65;;;17.70;99.90;;;;;;5043332;28;20224;-79
2022/08/11 03:06:52;;;;;;;7.90;3.40;;;17.70;99.90;;;;;;5044450;28;20224;-80
2022/08/11 03:09:48;;;;;;;6.72;3.65;;;17.70;99.90;;;;;;5046689;28;20224;-79
2022/08/11 03:19:30;;;;;;;9.25;3.67;;;17.50;99.90;;;;;;5041601;28;20216;-79
2022/08/11 03:22:24;;;;;;;9.98;3.50;;;17.60;99.90;;;;;;5055072;28;20239;-79
2022/08/11 03:25:29;;;;;;;9.25;4.10;;;17.40;99.90;;;;;;5047896;28;20230;-78
2022/08/11 03:28:29;;;;;;;5.93;3.70;;;17.50;99.90;;;;;;5040249;28;20227;-79
2022/08/11 03:31:24;;;;;;;11.93;4.00;;;17.40;99.90;;;;;;5042826;28;20221;-78
2022/08/11 03:34:18;;;;;;;6.47;3.42;;;17.40;99.90;;;;;;5058730;28;20228;-79
2022/08/11 03:44:03;;;;;;;5.13;3.90;;;17.60;99.90;;;;;;5056653;28;20217;-78
2022/08/11 03:47:08;;;;;;;7.38;3.85;;;17.30;99.90;;;;;;5055271;28;20212;-79
2022/08/11 03:50:05;;;;;;;6.40;3.72;;;17.40;99.90;;;;;;5040100;28;20290;-77
2022/08/11 03:53:05;;;;;;;9.93;4.10;;;17.50;99.90;;;;;;5055233;28;20231;-78
2022/08/11 03:56:18;;;;;;;10.43;3.92;;;17.40;99.90;;;;;;5057701;28;20223;-79
2022/08/11 03:59:38;;;;;;;6.25;4.05;;;17.40;99.90;;;;;;5055975;28;20224;-78
2022/08/11 04:03:04;;;;;;;8.05;3.70;;;17.50;99.90;;;;;;5058116;28;20251;-79
2022/08/11 04:06:40;;;;;;;8.98;3.83;;;17.40;99.90;;;;;;5047803;28;20222;-79
2022/08/11 04:10:07;;;;;;;8.57;3.90;;;17.40;99.90;;;;;;5047042;28;20575;-79
2022/08/11 04:13:35;;;;;;;7.70;3.88;;;17.60;99.90;;;;;;4983001;28;20231;-80
2022/08/11 04:16:46;;;;;;;5.05;3.50;;;17.60;99.90;;;;;;5059359;28;20258;-81
2022/08/11 04:20:00;;;;;;;9.48;3.47;;;17.50;99.90;;;;;;5045621;28;20220;-80
2022/08/11 04:23:28;;;;;;;8.48;3.50;;;17.60;99.90;;;;;;5062022;28;20228;-81
2022/08/11 04:27:17;;;;;;;9.25;3.78;;;17.60;99.90;;;;;;5060709;28;20592;-81
2022/08/11 04:30:13;;;;;;;11.32;3.97;;;17.70;99.90;;;;;;4996317;28;20893;-81
2022/08/11 04:33:35;;;;;;;5.90;3.40;;;18.00;99.90;;;;;;5059114;28;20233;-82
2022/08/11 04:40:12;;;;;;;7.43;3.67;;;17.70;99.90;;;;;;5064087;28;20215;-81
2022/08/11 04:43:24;;;;;;;7.05;3.85;;;17.60;99.90;;;;;;5044963;28;20216;-82
2022/08/11 04:46:28;;;;;;;5.50;3.70;;;17.80;99.90;;;;;;5061426;28;20212;-82
2022/08/11 05:03:50;;;;;;;4.60;3.22;;;18.00;99.90;;;;;;5059554;28;20592;-79
2022/08/11 05:07:11;;;;;;;7.07;3.72;;;18.10;99.90;;;;;;5057864;28;20638;-79
2022/08/11 05:10:21;;;;;;;12.15;4.03;;;18.00;99.90;;;;;;5067763;28;20238;-78
2022/08/11 05:36:12;;;;;;;6.70;3.70;;;18.90;99.90;;;;;;5054411;28;20342;-80
2022/08/11 05:58:19;;;;;;;6.53;3.22;;;19.50;99.90;;;;;;5045259;28;20216;-79
2022/08/11 06:01:09;;;;;;;9.95;3.38;;;19.70;99.90;;;;;;5058839;28;20228;-78
2022/08/11 06:04:14;;;;;;;11.63;3.53;;;19.60;99.90;;;;;;5058134;28;21047;-80
2022/08/11 06:07:08;;;;;;;11.20;3.42;;;20.00;99.90;;;;;;5063091;28;20219;-79
2022/08/11 06:09:58;;;;;;;9.85;3.50;;;21.20;99.90;;;;;;5043662;28;20220;-78
2022/08/11 06:12:54;;;;;;;7.40;3.72;;;21.70;99.90;;;;;;5046784;28;20221;-80
2022/08/11 06:15:47;;;;;;;7.90;3.00;;;21.30;99.90;;;;;;5042413;28;20224;-79
2022/08/11 06:18:37;;;;;;;8.65;3.03;;;21.00;99.90;;;;;;5057629;28;20280;-79
2022/08/11 06:21:27;;;;;;;6.63;3.40;;;20.60;99.90;;;;;;5058289;28;20224;-79
2022/08/11 06:24:16;;;;;;;6.95;2.92;;;20.40;99.90;;;;;;5061707;28;20216;-79
2022/08/11 06:27:06;;;;;;;9.05;3.20;;;20.30;99.90;;;;;;5043930;28;20225;-78
2022/08/11 06:30:12;;;;;;;6.60;3.03;;;20.50;99.90;;;;;;5046738;28;20227;-79
2022/08/11 06:33:03;;;;;;;13.98;2.92;;;20.50;99.90;;;;;;5058669;28;20227;-79
2022/08/11 06:36:02;;;;;;;6.97;2.65;;;20.60;99.90;;;;;;5058159;28;20239;-81
2022/08/11 06:39:02;;;;;;;8.70;3.33;;;21.10;99.90;;;;;;5059235;28;20219;-78
2022/08/11 06:41:56;;;;;;;5.20;2.72;;;21.80;99.90;;;;;;5062430;28;20231;-78
2022/08/11 06:45:03;;;;;;;10.40;2.80;;;22.80;99.90;;;;;;5057069;28;20226;-79
2022/08/11 06:47:56;;;;;;;6.72;3.08;;;22.30;99.90;;;;;;5058800;28;20314;-80
2022/08/11 06:54:00;;;;;;;5.43;2.50;;;21.40;99.90;;;;;;5059425;28;20251;-80
2022/08/11 07:00:32;;;;;;;11.45;2.92;;;21.60;99.90;;;;;;5043682;28;20235;-78
2022/08/11 07:03:23;;;;;;;5.47;2.63;;;21.80;99.90;;;;;;5058274;28;20227;-79
2022/08/11 07:06:29;;;;;;;8.15;2.63;;;21.60;99.90;;;;;;5037628;28;20224;-79
2022/08/11 07:16:39;;;;;;;5.80;2.10;;;22.00;99.90;;;;;;5058234;28;20220;-79
2022/08/11 07:29:02;;;;;;;6.93;2.13;;;22.70;99.90;;;;;;5042125;28;20819;-78
2022/08/11 07:31:53;;;;;;;6.72;2.47;;;22.80;99.90;;;;;;5055997;28;20772;-82
2022/08/11 07:34:52;;;;;;;6.78;2.22;;;22.80;99.90;;;;;;5041787;28;20239;-79
2022/08/11 07:37:43;;;;;;;9.65;2.08;;;23.20;99.90;;;;;;5055718;28;20776;-78
2022/08/11 07:40:33;;;;;;;6.15;2.22;;;23.20;99.90;;;;;;5058392;28;20890;-79
2022/08/11 07:43:22;;;;;;;4.97;1.90;;;23.40;99.90;;;;;;5060158;28;20755;-78
2022/08/11 07:52:31;;;;;;;7.55;2.20;;;24.20;99.90;;;;;;5062743;28;20764;-77
2022/08/11 07:55:24;;;;;;;5.07;1.75;;;24.60;99.90;;;;;;5062348;28;20374;-77
2022/08/11 08:20:53;;;;;;;1.50;1.40;;;26.20;99.90;;;;;;5063034;28;20315;-75
2022/08/11 08:23:46;;;;;;;6.43;1.80;;;26.80;99.40;;;;;;5058936;28;20216;-77
2022/08/11 08:26:58;;;;;;;3.55;1.23;;;26.70;96.00;;;;;;5063444;28;20216;-77
2022/08/11 08:32:56;;;;;;;3.75;1.50;;;26.50;94.20;;;;;;5064564;28;20251;-78
2022/08/11 08:35:45;;;;;;;3.05;1.50;;;26.30;93.90;;;;;;5058267;28;20233;-76
2022/08/11 08:38:49;;;;;;;4.50;1.55;;;26.60;96.20;;;;;;5063749;28;20216;-77
2022/08/11 08:41:39;;;;;;;4.63;1.60;;;27.10;93.30;;;;;;5070045;28;20294;-78
2022/08/11 08:44:29;;;;;;;4.38;1.70;;;27.50;93.00;;;;;;5053852;28;20875;-78
2022/08/11 08:47:31;;;;;;;10.65;1.70;;;27.60;90.70;;;;;;5052015;28;20242;-78
2022/08/11 08:53:48;;;;;;;3.80;1.20;;;27.70;88.70;;;;;;5063138;28;20212;-79
2022/08/11 08:56:42;;;;;;;6.43;1.70;;;27.60;90.10;;;;;;5062999;28;20251;-77
2022/08/11 08:59:35;;;;;;;4.05;1.90;;;28.40;87.80;;;;;;5055588;28;20223;-78
2022/08/11 09:02:37;;;;;;;3.65;1.30;;;28.20;84.70;;;;;;5062234;28;20219;-78
2022/08/11 09:05:26;;;;;;;6.47;1.70;;;28.20;84.20;;;;;;5046165;28;20258;-79
2022/08/11 09:08:17;;;;;;;2.95;1.30;;;27.90;83.20;;;;;;5056335;28;20279;-79
2022/08/11 09:14:14;;;;;;;4.95;1.60;;;27.60;82.60;;;;;;5046346;28;20791;-79
2022/08/11 09:17:03;;;;;;;3.55;1.50;;;27.00;86.50;;;;;;5046561;28;20244;-78
2022/08/11 09:19:59;;;;;;;2.75;1.40;;;27.50;83.80;;;;;;5062444;28;20228;-79
2022/08/11 09:29:24;;;;;;;4.05;1.30;;;27.90;79.80;;;;;;5042599;28;20877;-80
2022/08/11 09:32:13;;;;;;;1.88;1.50;;;28.70;80.80;;;;;;5046095;28;20645;-79
2022/08/11 09:35:04;;;;;;;1.50;1.30;;;29.40;78.00;;;;;;5062954;28;20224;-79
2022/08/11 09:41:04;;;;;;;2.30;1.27;;;29.60;74.70;;;;;;5045756;28;20220;-79
2022/08/11 09:47:21;;;;;;;3.63;1.30;;;30.30;71.90;;;;;;4980395;28;20577;-80
2022/08/11 09:50:14;;;;;;;1.90;1.13;;;30.40;70.20;;;;;;4971432;28;20711;-80
2022/08/11 09:53:04;;;;;;;2.03;1.40;;;30.70;67.80;;;;;;5036939;28;20314;-79
2022/08/11 09:59:24;;;;;;;3.40;1.40;;;29.40;69.90;;;;;;5061509;28;20208;-78
2022/08/11 10:02:13;;;;;;;4.32;1.45;;;30.90;65.60;;;;;;5048766;28;20223;-78
2022/08/11 10:08:09;;;;;;;5.45;1.58;;;30.80;64.60;;;;;;5042132;28;20291;-79
2022/08/11 10:10:57;;;;;;;3.78;1.73;;;31.20;64.20;;;;;;5060228;28;20346;-80
2022/08/11 10:17:18;;;;;;;2.05;1.33;;;29.10;69.10;;;;;;5061474;28;20220;-79
2022/08/11 10:20:10;;;;;;;2.08;1.85;;;27.40;71.20;;;;;;5045033;28;20251;-78
2022/08/11 10:35:48;;;;;;;2.80;1.85;;;27.70;73.70;;;;;;5059672;28;20647;-78
2022/08/11 10:38:37;;;;;;;7.70;1.60;;;27.20;77.00;;;;;;5046401;28;20220;-81
2022/08/11 10:44:55;;;;;;;2.83;1.42;;;27.80;79.90;;;;;;5042301;28;20648;-79
2022/08/11 10:47:45;;;;;;;3.67;1.30;;;31.80;70.40;;;;;;5062707;28;20950;-79
2022/08/11 11:00:01;;;;;;;4.45;1.55;;;35.80;56.20;;;;;;5059933;28;20329;-80
2022/08/11 11:02:52;;;;;;;1.00;1.00;;;35.70;54.50;;;;;;5056581;28;20365;-80
2022/08/11 11:06:08;;;;;;;1.55;1.10;;;34.90;54.30;;;;;;5060859;28;20739;-79
2022/08/11 11:09:19;;;;;;;2.45;1.20;;;34.10;54.40;;;;;;5048381;28;20252;-80
2022/08/11 11:18:34;;;;;;;1.98;1.20;;;34.30;53.00;;;;;;5040872;28;20235;-78
2022/08/11 11:21:29;;;;;;;1.60;1.30;;;36.00;53.00;;;;;;5043330;28;20236;-80
2022/08/11 11:24:32;;;;;;;2.58;1.30;;;34.50;53.80;;;;;;5059766;28;20219;-79
2022/08/11 11:27:30;;;;;;;2.13;1.45;;;31.00;58.00;;;;;;5044221;28;20223;-78
2022/08/11 11:30:19;;;;;;;2.65;1.35;;;29.10;62.10;;;;;;5048036;28;20266;-81
2022/08/11 11:33:15;;;;;;;3.38;1.50;;;29.20;65.40;;;;;;5059843;28;20226;-82
2022/08/11 11:36:15;;;;;;;3.08;1.20;;;33.00;59.70;;;;;;5042029;28;20290;-80
2022/08/11 11:39:04;;;;;;;5.78;1.42;;;33.30;55.20;;;;;;5044372;28;20219;-81
2022/08/11 11:41:55;;;;;;;2.17;1.23;;;32.00;57.40;;;;;;5057022;28;20227;-79
2022/08/11 11:44:45;;;;;;;1.52;1.20;;;29.40;58.80;;;;;;5056187;28;20226;-80
2022/08/11 11:47:36;;;;;;;1.58;1.10;;;28.30;60.80;;;;;;5057936;28;20261;-80
2022/08/11 11:50:26;;;;;;;2.10;1.60;;;27.40;62.80;;;;;;5059146;28;20215;-78
2022/08/11 11:53:22;;;;;;;2.65;1.30;;;26.70;64.60;;;;;;5058264;28;20227;-79
2022/08/11 11:56:12;;;;;;;3.92;1.60;;;26.70;65.50;;;;;;5059372;28;20219;-79
2022/08/11 12:02:09;;;;;;;4.35;1.50;;;32.70;58.40;;;;;;5042280;28;20226;-79
2022/08/11 12:05:01;;;;;;;2.35;1.40;;;35.80;52.30;;;;;;5059911;28;20691;-81
2022/08/11 12:14:12;;;;;;;5.07;1.27;;;;;;;;;;5063765;28;20309;-78
2022/08/11 12:17:01;;;;;;;3.33;1.30;;;40.70;44.40;;;;;;5042387;28;20574;-80
2022/08/11 12:19:50;;;;;;;1.83;1.40;;;39.80;44.90;;;;;;5061575;28;20344;-81
2022/08/11 12:29:15;;;;;;;2.28;1.10;;;31.30;53.80;;;;;;5061506;28;20228;-80
2022/08/11 12:32:08;;;;;;;4.00;1.20;;;28.70;59.20;;;;;;5060952;28;20224;-79
2022/08/11 12:34:57;;;;;;;4.88;1.80;;;28.30;61.10;;;;;;5081472;28;20281;-80
2022/08/11 12:37:49;;;;;;;1.67;1.20;;;28.00;62.00;;;;;;5066021;28;20232;-81
2022/08/11 12:47:20;;;;;;;1.35;1.25;;;27.40;64.80;;;;;;5059718;28;20216;-81
2022/08/11 12:53:16;;;;;;;3.95;1.50;;;27.60;65.40;;;;;;5063695;28;20225;-80
2022/08/11 13:05:33;;;;;;;5.93;1.30;;;26.80;63.90;;;;;;5060552;28;20280;-79
2022/08/11 13:08:31;;;;;;;2.50;1.48;;;26.60;68.20;;;;;;5063692;28;20565;-80
2022/08/11 13:14:45;;;;;;;1.20;1.10;;;26.40;72.60;;;;;;5058972;28;20224;-80
2022/08/11 13:17:35;;;;;;;5.63;1.45;;;26.40;70.60;;;;;;5053883;28;20224;-80
2022/08/11 13:20:32;;;;;;;1.95;1.40;;;26.40;69.40;;;;;;5043898;28;20253;-80
2022/08/11 13:23:22;;;;;;;3.30;1.42;;;26.40;69.60;;;;;;5055709;28;20708;-80
2022/08/11 13:26:11;;;;;;;1.45;1.23;;;26.50;69.50;;;;;;5062564;28;20293;-78
2022/08/11 13:29:00;;;;;;;3.65;1.30;;;26.90;69.20;;;;;;5050373;28;20566;-79
2022/08/11 13:31:49;;;;;;;2.95;1.60;;;26.50;68.30;;;;;;5046464;28;20896;-81
2022/08/11 13:34:42;;;;;;;1.67;1.40;;;26.80;68.20;;;;;;5059916;28;20239;-79
2022/08/11 13:37:34;;;;;;;1.75;1.23;;;26.70;66.90;;;;;;5062361;28;20216;-80
2022/08/11 13:40:43;;;;;;;2.70;1.20;;;26.70;67.50;;;;;;5051795;28;20217;-80
2022/08/11 13:43:45;;;;;;;3.08;1.27;;;26.20;67.60;;;;;;5051476;28;20278;-81
2022/08/11 13:46:34;;;;;;;1.38;1.27;;;26.50;68.30;;;;;;5052320;28;20216;-81
2022/08/11 13:49:24;;;;;;;5.10;1.30;;;26.20;67.80;;;;;;5062656;28;20654;-82
2022/08/11 13:52:16;;;;;;;2.55;1.55;;;26.40;69.70;;;;;;5066140;28;20246;-80
2022/08/11 13:55:07;;;;;;;1.63;1.30;;;26.40;70.10;;;;;;5062237;28;20228;-79
2022/08/11 13:57:56;;;;;;;3.55;1.42;;;26.20;70.20;;;;;;5062957;28;20228;-79
2022/08/11 14:01:08;;;;;;;2.45;1.40;;;26.50;70.80;;;;;;5063569;28;20362;-80
2022/08/11 14:04:24;;;;;;;2.47;1.23;;;26.50;69.90;;;;;;5061324;28;20261;-80
2022/08/11 14:07:22;;;;;;;4.78;1.70;;;26.80;71.10;;;;;;5060733;28;20250;-81
2022/08/11 14:10:14;;;;;;;3.22;1.38;;;26.90;70.50;;;;;;5051657;28;20347;-80
2022/08/11 14:16:19;;;;;;;1.40;1.30;;;26.80;68.40;;;;;;5047804;28;20224;-80
2022/08/11 14:19:12;;;;;;;3.75;1.63;;;26.80;68.60;;;;;;5062450;28;20228;-80
2022/08/11 14:22:08;;;;;;;3.30;1.55;;;26.70;69.70;;;;;;5064000;28;20248;-80
2022/08/11 14:24:59;;;;;;;3.05;1.30;;;26.50;67.80;;;;;;5059795;28;20236;-79
2022/08/11 14:27:50;;;;;;;4.25;1.40;;;26.50;68.80;;;;;;5045437;28;20634;-80
2022/08/11 14:30:59;;;;;;;2.80;1.27;;;26.70;69.30;;;;;;5046803;28;20309;-81
2022/08/11 14:33:50;;;;;;;2.80;1.77;;;26.50;68.30;;;;;;5061062;28;20220;-81
2022/08/11 14:36:52;;;;;;;3.10;1.60;;;26.50;68.80;;;;;;5060407;28;20216;-81
2022/08/11 14:39:43;;;;;;;4.07;1.30;;;26.60;68.90;;;;;;5048112;28;20726;-79
2022/08/11 14:48:47;;;;;;;3.55;1.50;;;26.00;77.30;;;;;;5046385;28;20789;-81
2022/08/11 14:51:36;;;;;;;1.88;1.40;;;25.80;77.90;;;;;;5044329;28;20228;-81
2022/08/11 14:57:37;;;;;;;5.30;1.58;;;25.70;79.00;;;;;;5045283;28;20216;-81
2022/08/11 15:00:45;;;;;;;2.58;1.48;;;25.80;79.60;;;;;;5060260;28;20755;-79
2022/08/11 15:03:33;;;;;;;1.98;1.40;;;25.70;80.00;;;;;;5040159;28;20265;-79
2022/08/11 15:06:22;;;;;;;2.20;1.33;;;25.60;81.10;;;;;;5059420;28;20226;-81
2022/08/11 15:09:10;;;;;;;3.20;1.40;;;25.50;81.60;;;;;;5057364;28;20227;-81
2022/08/11 15:12:15;;;;;;;2.00;1.55;;;25.50;82.40;;;;;;5052913;28;20231;-79
2022/08/11 15:18:30;;;;;;;2.53;1.67;;;25.50;83.10;;;;;;5057971;28;20700;-79
2022/08/11 15:24:24;;;;;;;3.65;1.48;;;25.40;82.90;;;;;;5030411;28;20212;-78
2022/08/11 15:46:44;;;;;;;3.13;1.80;;;25.20;83.20;;;;;;4997490;28;20225;-80
2022/08/11 15:49:39;;;;;;;6.00;1.75;;;25.20;83.00;;;;;;5054451;28;20225;-79
2022/08/11 15:52:53;;;;;;;4.70;1.30;;;25.20;82.00;;;;;;5038006;28;20228;-79
2022/08/11 15:55:43;;;;;;;3.30;1.42;;;25.20;83.70;;;;;;5040560;28;20223;-79
2022/08/11 16:05:16;;;;;;;6.95;2.25;;;25.00;90.00;;;;;;5066704;28;20291;-80
2022/08/11 16:08:26;;;;;;;2.58;1.58;;;25.00;90.50;;;;;;5047010;28;20221;-81
2022/08/11 16:11:22;;;;;;;4.22;1.58;;;25.00;90.00;;;;;;5056524;28;20198;-81
2022/08/11 16:17:26;;;;;;;4.93;1.55;;;24.90;91.10;;;;;;5062354;28;20193;-81
2022/08/11 16:20:18;;;;;;;9.30;2.00;;;24.80;90.80;;;;;;5041756;28;20346;-80
2022/08/11 16:23:09;;;;;;;3.63;1.88;;;24.80;91.20;;;;;;5041776;28;20213;-80
2022/08/11 16:26:00;;;;;;;17.88;3.00;;;24.70;91.50;;;;;;5036910;28;20194;-80
2022/08/11 16:29:11;;;;;;;7.32;1.92;;;24.70;91.80;;;;;;5053695;28;20213;-83
2022/08/11 16:38:35;;;;;;;6.35;2.10;;;24.80;93.10;;;;;;5037579;28;20201;-83
2022/08/11 16:47:41;;;;;;;4.32;1.80;;;24.60;94.10;;;;;;5034745;28;20734;-81
2022/08/11 16:50:51;;;;;;;2.80;1.67;;;24.50;94.90;;;;;;5037103;28;21021;-82
2022/08/11 16:53:43;;;;;;;7.15;1.70;;;24.50;94.50;;;;;;5038971;28;20225;-85
2022/08/11 16:56:53;;;;;;;7.00;1.77;;;24.40;94.80;;;;;;5034979;28;20676;-81
2022/08/11 16:59:41;;;;;;;3.45;1.70;;;24.50;94.80;;;;;;5039100;28;20225;-83
2022/08/11 17:21:26;;;;;;;5.00;1.95;;;24.20;97.20;;;;;;5050854;28;20709;-80
2022/08/11 17:24:16;;;;;;;5.15;2.42;;;24.30;97.80;;;;;;5056456;28;20212;-81
2022/08/11 17:27:07;;;;;;;5.85;2.42;;;24.30;98.60;;;;;;5043785;28;20260;-79
2022/08/11 17:29:58;;;;;;;4.43;2.00;;;24.20;99.20;;;;;;5036953;28;20316;-81
2022/08/11 17:35:58;;;;;;;6.28;2.20;;;24.20;99.90;;;;;;5039765;28;20408;-80
2022/08/11 17:38:48;;;;;;;4.20;2.00;;;24.00;99.90;;;;;;5036707;28;20740;-79
2022/08/11 17:51:01;;;;;;;3.88;2.08;;;23.80;99.90;;;;;;5039105;28;20725;-79
2022/08/11 18:00:23;;;;;;;7.22;2.00;;;23.70;99.90;;;;;;5039894;28;20216;-79
2022/08/11 18:03:32;;;;;;;3.95;2.10;;;23.80;99.90;;;;;;5037528;28;20228;-80
2022/08/11 18:06:24;;;;;;;8.73;2.30;;;23.80;99.90;;;;;;5040499;28;20331;-79
